TAF EGNH 260557Z 2606/2615 08010KT 9999 SCT030
BECMG 2613/2615 02006KT
From batch tds/tafs/production/2023/3/26/h06_m00_tafs.cache.xml
Issued (2 months ago)
Forecasts
2606/2613 8010KT P6SM SCT3000

---
fcst_time_to: '2023-03-26T13:00:00Z'
sky_condition:
- sky_cover: SCT
  cloud_base_ft_agl: '3000'
wind_speed_kt: '10'
fcst_time_from: '2023-03-26T06:00:00Z'
wind_dir_degrees: '80'
visibility_statute_mi: '6.21'

BECMG 2615/2615 2006KT P6SM SCT3000

---
fcst_time_to: '2023-03-26T15:00:00Z'
sky_condition:
- sky_cover: SCT
  cloud_base_ft_agl: '3000'
time_becoming: '2023-03-26T15:00:00Z'
wind_speed_kt: '6'
fcst_time_from: '2023-03-26T13:00:00Z'
change_indicator: BECMG
wind_dir_degrees: '20'
visibility_statute_mi: '6.21'

talk